Time;durP1;ratioP1;P1;durP2;ratioP2;P2;SDS_P1;SDS_P2;PMS_P1;PMS_P2;Temp;Humidity;BMP_temperature;BMP_pressure;BME280_temperature;BME280_humidity;BME280_pressure;Samples;Min_cycle;Max_cycle;Signal;HPM_P1;HPM_P2
2023/03/17 00:01:49;;;;;;;1.58;1.05;;;;;;;;;;5031643;28;20435;-69
2023/03/17 00:04:21;;;;;;;0.80;0.70;;;;;;;;;;5029142;28;20433;-69
2023/03/17 00:06:48;;;;;;;0.88;0.88;;;;;;;;;;5030826;28;20435;-69
2023/03/17 00:09:20;;;;;;;0.77;0.75;;;;;;;;;;5031116;28;20442;-69
2023/03/17 00:11:47;;;;;;;0.47;0.47;;;;;;;;;;5029824;28;20427;-70
2023/03/17 00:14:15;;;;;;;0.70;0.70;;;;;;;;;;5030634;28;20915;-69
2023/03/17 00:16:43;;;;;;;1.00;0.73;;;;;;;;;;5031013;28;20439;-69
2023/03/17 00:19:18;;;;;;;0.90;0.90;;;;;;;;;;5029472;28;20484;-69
2023/03/17 00:21:45;;;;;;;0.50;0.30;;;;;;;;;;5030851;28;20588;-70
2023/03/17 00:24:13;;;;;;;0.47;0.47;;;;;;;;;;5028801;28;20522;-70
2023/03/17 00:26:42;;;;;;;0.77;0.77;;;;;;;;;;5010955;28;20428;-69
2023/03/17 00:29:09;;;;;;;0.60;0.50;;;;;;;;;;5011020;28;20508;-70
2023/03/17 00:31:39;;;;;;;0.57;0.57;;;;;;;;;;5026198;28;20593;-70
2023/03/17 00:34:10;;;;;;;0.40;0.40;;;;;;;;;;5030227;28;20480;-70
2023/03/17 00:36:37;;;;;;;0.70;0.70;;;;;;;;;;5030960;28;20434;-69
2023/03/17 00:39:06;;;;;;;0.40;0.40;;;;;;;;;;5028689;28;20427;-70
2023/03/17 00:41:33;;;;;;;0.50;0.50;;;;;;;;;;5029253;28;20439;-69
2023/03/17 00:44:00;;;;;;;1.45;0.68;;;;;;;;;;5027811;28;20984;-69
2023/03/17 00:46:34;;;;;;;0.85;0.55;;;;;;;;;;5029152;28;20457;-69
2023/03/17 00:49:04;;;;;;;0.57;0.50;;;;;;;;;;5030157;28;20878;-69
2023/03/17 00:51:34;;;;;;;0.70;0.70;;;;;;;;;;5030109;28;20430;-69
2023/03/17 00:54:03;;;;;;;2.60;0.52;;;;;;;;;;5028189;28;20439;-69
2023/03/17 00:56:30;;;;;;;0.73;0.73;;;;;;;;;;5030345;28;20427;-70
2023/03/17 00:58:57;;;;;;;1.13;1.08;;;;;;;;;;5030219;28;20785;-69
2023/03/17 01:01:25;;;;;;;0.90;0.90;;;;;;;;;;5030020;28;20987;-69
2023/03/17 01:03:52;;;;;;;0.70;0.65;;;;;;;;;;5028155;28;20758;-69
2023/03/17 01:06:20;;;;;;;0.80;0.80;;;;;;;;;;5030199;28;20437;-69
2023/03/17 01:08:47;;;;;;;0.80;0.80;;;;;;;;;;5030052;28;20439;-70
2023/03/17 01:11:22;;;;;;;0.70;0.70;;;;;;;;;;5028743;28;20438;-69
2023/03/17 01:13:49;;;;;;;0.77;0.40;;;;;;;;;;5029582;28;20441;-70
2023/03/17 01:16:17;;;;;;;1.05;0.95;;;;;;;;;;5030327;28;20862;-69
2023/03/17 01:18:44;;;;;;;0.30;0.30;;;;;;;;;;5029993;28;20449;-69
2023/03/17 01:21:11;;;;;;;0.70;0.70;;;;;;;;;;5030027;28;20422;-69
2023/03/17 01:23:42;;;;;;;1.08;0.80;;;;;;;;;;5027484;28;20423;-70
2023/03/17 01:26:09;;;;;;;0.50;0.50;;;;;;;;;;5029655;28;20510;-69
2023/03/17 01:28:39;;;;;;;0.40;0.40;;;;;;;;;;5029681;28;20439;-69
2023/03/17 01:31:06;;;;;;;0.63;0.63;;;;;;;;;;5029965;28;20426;-69
2023/03/17 01:33:33;;;;;;;0.57;0.57;;;;;;;;;;5023031;28;20442;-69
2023/03/17 01:36:01;;;;;;;0.70;0.70;;;;;;;;;;5022982;28;20431;-70
2023/03/17 01:38:28;;;;;;;0.80;0.75;;;;;;;;;;5029558;28;20431;-70
2023/03/17 01:40:55;;;;;;;0.60;0.60;;;;;;;;;;5027671;28;20442;-70
2023/03/17 01:43:28;;;;;;;0.50;0.50;;;;;;;;;;5027598;28;20442;-69
2023/03/17 01:46:11;;;;;;;0.70;0.50;;;;;;;;;;5026926;28;20438;-70
2023/03/17 01:48:41;;;;;;;0.30;0.30;;;;;;;;;;5027293;28;20942;-69
2023/03/17 01:51:17;;;;;;;0.50;0.40;;;;;;;;;;5028211;28;20922;-69
2023/03/17 01:53:46;;;;;;;0.47;0.47;;;;;;;;;;5029020;28;20441;-69
2023/03/17 01:56:14;;;;;;;0.60;0.55;;;;;;;;;;5027259;28;20431;-70
2023/03/17 01:58:41;;;;;;;0.33;0.33;;;;;;;;;;5026818;28;20462;-69
2023/03/17 02:01:12;;;;;;;0.73;0.73;;;;;;;;;;5030623;28;20446;-69
2023/03/17 02:03:41;;;;;;;1.95;0.75;;;;;;;;;;5032331;28;20553;-69
2023/03/17 02:06:14;;;;;;;1.33;0.40;;;;;;;;;;5033325;28;20434;-69
2023/03/17 02:08:41;;;;;;;0.60;0.60;;;;;;;;;;5033361;28;20510;-69
2023/03/17 02:11:08;;;;;;;0.40;0.40;;;;;;;;;;5032217;28;20469;-69
2023/03/17 02:13:36;;;;;;;0.68;0.68;;;;;;;;;;5031954;28;20423;-69
2023/03/17 02:16:04;;;;;;;1.27;0.60;;;;;;;;;;5031199;28;20437;-69
2023/03/17 02:18:34;;;;;;;0.40;0.40;;;;;;;;;;5031680;28;20932;-69
2023/03/17 02:21:22;;;;;;;1.40;0.80;;;;;;;;;;5033017;28;20785;-69
2023/03/17 02:23:50;;;;;;;1.27;0.57;;;;;;;;;;5033013;28;20442;-69
2023/03/17 02:26:18;;;;;;;0.82;0.82;;;;;;;;;;5032152;28;20434;-70
2023/03/17 02:28:45;;;;;;;0.55;0.55;;;;;;;;;;5030843;28;20441;-69
2023/03/17 02:31:13;;;;;;;0.90;0.80;;;;;;;;;;5032859;28;20426;-69
2023/03/17 02:33:41;;;;;;;1.50;1.00;;;;;;;;;;5031424;28;20469;-69
2023/03/17 02:36:09;;;;;;;3.80;0.53;;;;;;;;;;5032636;28;20481;-69
2023/03/17 02:38:37;;;;;;;0.20;0.20;;;;;;;;;;5033067;28;20434;-70
2023/03/17 02:41:06;;;;;;;0.70;0.70;;;;;;;;;;5032739;28;20430;-69
2023/03/17 02:43:33;;;;;;;0.60;0.40;;;;;;;;;;5031551;28;20475;-69
2023/03/17 02:46:00;;;;;;;0.35;0.35;;;;;;;;;;5032231;28;20919;-70
2023/03/17 02:48:30;;;;;;;0.50;0.50;;;;;;;;;;5032519;28;20441;-70
2023/03/17 02:50:58;;;;;;;0.90;0.90;;;;;;;;;;5030818;28;20437;-70
2023/03/17 02:53:31;;;;;;;3.45;0.75;;;;;;;;;;5032620;28;21143;-69
2023/03/17 02:55:58;;;;;;;0.40;0.40;;;;;;;;;;5028884;28;20504;-70
2023/03/17 02:58:25;;;;;;;0.50;0.50;;;;;;;;;;5029921;28;20504;-69
2023/03/17 03:00:53;;;;;;;0.80;0.80;;;;;;;;;;5030229;28;21008;-70
2023/03/17 03:03:20;;;;;;;0.30;0.30;;;;;;;;;;5032478;28;21193;-69
2023/03/17 03:05:50;;;;;;;0.50;0.50;;;;;;;;;;5032231;28;20439;-69
2023/03/17 03:08:17;;;;;;;5.28;0.60;;;;;;;;;;5031983;28;20441;-70
2023/03/17 03:10:45;;;;;;;0.55;0.55;;;;;;;;;;5032619;28;20427;-69
2023/03/17 03:13:12;;;;;;;0.50;0.50;;;;;;;;;;5031394;28;20442;-69
2023/03/17 03:15:40;;;;;;;0.73;0.73;;;;;;;;;;5029857;28;20430;-69
2023/03/17 03:18:08;;;;;;;0.60;0.60;;;;;;;;;;5032166;28;20805;-69
2023/03/17 03:20:35;;;;;;;1.02;0.93;;;4.70;99.90;;;;;;5032274;28;20430;-70
2023/03/17 03:23:02;;;;;;;0.90;0.90;;;2.00;99.90;;;;;;5030430;28;20731;-70
2023/03/17 03:25:34;;;;;;;0.52;0.52;;;1.90;99.90;;;;;;5031198;28;20469;-69
2023/03/17 03:28:01;;;;;;;3.00;0.80;;;1.80;99.90;;;;;;5030494;28;21001;-69
2023/03/17 03:30:28;;;;;;;0.70;0.60;;;1.70;99.90;;;;;;5031870;28;20445;-69
2023/03/17 03:33:00;;;;;;;0.70;0.70;;;1.50;99.90;;;;;;5030241;28;20541;-70
2023/03/17 03:35:28;;;;;;;0.38;0.38;;;1.50;99.90;;;;;;5031686;28;20427;-69
2023/03/17 03:37:55;;;;;;;0.80;0.80;;;1.50;99.90;;;;;;5032136;28;21059;-69
2023/03/17 03:40:24;;;;;;;0.77;0.77;;;1.50;99.90;;;;;;5030514;28;20902;-69
2023/03/17 03:42:51;;;;;;;0.77;0.77;;;1.50;99.90;;;;;;5031593;28;20951;-70
2023/03/17 03:45:18;;;;;;;1.40;0.90;;;1.50;99.90;;;;;;5029848;28;20461;-69
2023/03/17 03:47:44;;;;;;;0.40;0.40;;;1.50;99.90;;;;;;5029615;28;20434;-69
2023/03/17 03:50:12;;;;;;;0.50;0.40;;;1.40;99.90;;;;;;5031529;28;20437;-69
2023/03/17 03:52:39;;;;;;;0.50;0.50;;;1.40;99.90;;;;;;5031870;28;20517;-69
2023/03/17 03:55:07;;;;;;;0.60;0.60;;;1.30;99.90;;;;;;5029353;28;20458;-69
2023/03/17 03:57:34;;;;;;;1.10;0.50;;;1.30;99.90;;;;;;5031688;28;20438;-69
2023/03/17 04:00:02;;;;;;;0.30;0.30;;;1.20;99.90;;;;;;5029372;28;20426;-69
2023/03/17 04:02:29;;;;;;;0.50;0.50;;;1.10;99.90;;;;;;5030326;28;20431;-69
2023/03/17 04:04:56;;;;;;;0.80;0.80;;;1.20;99.90;;;;;;5030972;28;20489;-69
2023/03/17 04:07:23;;;;;;;0.75;0.75;;;1.20;99.90;;;;;;5029801;28;20913;-69
2023/03/17 04:09:50;;;;;;;0.47;0.47;;;1.10;99.90;;;;;;5031027;28;20530;-69
2023/03/17 04:12:17;;;;;;;0.55;0.55;;;0.90;99.90;;;;;;5030012;28;20426;-69
2023/03/17 04:14:44;;;;;;;1.00;0.60;;;0.90;99.90;;;;;;5030657;28;20466;-69
2023/03/17 04:17:11;;;;;;;0.60;0.60;;;1.00;99.90;;;;;;5028491;28;20492;-69
2023/03/17 04:19:38;;;;;;;0.40;0.40;;;1.10;99.90;;;;;;5030138;28;20812;-69
2023/03/17 04:22:07;;;;;;;0.60;0.60;;;1.10;99.90;;;;;;5028828;28;20833;-69
2023/03/17 04:24:34;;;;;;;1.40;0.80;;;1.00;99.90;;;;;;5030434;28;20905;-69
2023/03/17 04:27:02;;;;;;;0.82;0.80;;;0.80;99.90;;;;;;5031073;28;20782;-69
2023/03/17 04:29:31;;;;;;;0.80;0.80;;;0.70;99.90;;;;;;5029434;28;20956;-69
2023/03/17 04:31:58;;;;;;;0.25;0.25;;;0.70;99.90;;;;;;5030803;28;20430;-69
2023/03/17 04:34:26;;;;;;;0.73;0.43;;;0.70;99.90;;;;;;5028877;28;20443;-70
2023/03/17 04:36:53;;;;;;;0.50;0.50;;;0.70;99.90;;;;;;5010756;28;20436;-69
2023/03/17 04:39:19;;;;;;;2.40;0.80;;;0.80;99.90;;;;;;5011111;28;20858;-69
2023/03/17 04:41:46;;;;;;;0.65;0.63;;;0.90;99.90;;;;;;5010626;28;20447;-69
2023/03/17 04:44:13;;;;;;;0.68;0.68;;;1.00;99.90;;;;;;5010450;28;20458;-69
2023/03/17 04:46:39;;;;;;;0.40;0.40;;;1.00;99.90;;;;;;5010339;28;20440;-69
2023/03/17 04:49:07;;;;;;;0.55;0.55;;;1.10;99.90;;;;;;5011002;28;20753;-70
2023/03/17 04:51:35;;;;;;;0.90;0.50;;;1.00;99.90;;;;;;5022841;28;20431;-69
2023/03/17 04:54:03;;;;;;;2.40;0.70;;;1.00;99.90;;;;;;5030336;28;20431;-69
2023/03/17 04:56:30;;;;;;;0.22;0.22;;;1.10;99.90;;;;;;5028243;28;20434;-69
2023/03/17 04:58:57;;;;;;;0.47;0.47;;;1.10;99.90;;;;;;5029766;28;20431;-69
2023/03/17 05:01:25;;;;;;;0.30;0.30;;;1.10;99.90;;;;;;5030279;28;20434;-69
2023/03/17 05:03:52;;;;;;;0.50;0.50;;;1.10;99.90;;;;;;5028696;28;20434;-69
2023/03/17 05:06:19;;;;;;;0.60;0.55;;;1.10;99.90;;;;;;5030486;28;20431;-69
2023/03/17 05:08:45;;;;;;;0.38;0.38;;;1.00;99.90;;;;;;5028205;28;20522;-69
2023/03/17 05:11:18;;;;;;;0.30;0.30;;;0.90;99.90;;;;;;5030156;28;20431;-69
2023/03/17 05:13:44;;;;;;;0.70;0.70;;;0.80;99.90;;;;;;5027805;28;20431;-69
2023/03/17 05:16:11;;;;;;;0.85;0.85;;;0.90;99.90;;;;;;5030343;28;20438;-69
2023/03/17 05:18:42;;;;;;;1.13;1.05;;;0.70;99.90;;;;;;5028811;28;20513;-69
2023/03/17 05:21:11;;;;;;;0.90;0.90;;;0.60;99.90;;;;;;5030415;28;20442;-69
2023/03/17 05:23:39;;;;;;;2.50;1.00;;;0.50;99.90;;;;;;5028046;28;20972;-69
2023/03/17 05:26:06;;;;;;;0.60;0.60;;;0.40;99.90;;;;;;5029670;28;20518;-69
2023/03/17 05:28:33;;;;;;;2.20;0.60;;;0.20;99.90;;;;;;5029743;28;20427;-69
2023/03/17 05:31:03;;;;;;;1.20;0.65;;;0.00;99.90;;;;;;5027489;28;20427;-70
2023/03/17 05:33:30;;;;;;;0.60;0.60;;;-0.20;99.90;;;;;;5029790;28;20472;-70
2023/03/17 05:35:56;;;;;;;0.70;0.70;;;-0.40;99.90;;;;;;5027075;28;21004;-69
2023/03/17 05:38:23;;;;;;;0.55;0.55;;;-0.60;99.90;;;;;;5028630;28;20450;-69
2023/03/17 05:40:53;;;;;;;0.80;0.80;;;-0.70;99.90;;;;;;5029953;28;20427;-69
2023/03/17 05:43:20;;;;;;;0.55;0.55;;;-0.70;99.90;;;;;;5029038;28;20430;-69
2023/03/17 05:45:49;;;;;;;0.65;0.65;;;-0.80;99.90;;;;;;5029196;28;20510;-69
2023/03/17 05:48:16;;;;;;;0.90;0.70;;;-0.80;99.90;;;;;;5028171;28;20917;-69
2023/03/17 05:50:43;;;;;;;0.57;0.57;;;-0.60;99.90;;;;;;5028064;28;20970;-70
2023/03/17 05:53:10;;;;;;;1.50;0.70;;;-0.50;99.90;;;;;;5029129;28;20789;-69
2023/03/17 05:55:36;;;;;;;0.60;0.60;;;-0.40;99.90;;;;;;5029378;28;20426;-70
2023/03/17 05:58:05;;;;;;;0.43;0.43;;;-0.30;99.90;;;;;;5029571;28;20514;-70
2023/03/17 06:00:32;;;;;;;0.70;0.60;;;-0.30;99.90;;;;;;5029789;28;20431;-70
2023/03/17 06:02:59;;;;;;;0.95;0.90;;;-0.40;99.90;;;;;;5029659;28;20518;-70
2023/03/17 06:05:26;;;;;;;0.97;0.90;;;-0.40;99.90;;;;;;5029146;28;20431;-69
2023/03/17 06:07:52;;;;;;;0.75;0.75;;;-0.30;99.90;;;;;;5029644;28;20442;-69
2023/03/17 06:10:23;;;;;;;0.50;0.50;;;-0.20;99.90;;;;;;5027458;28;20431;-69
2023/03/17 06:12:50;;;;;;;0.85;0.68;;;-0.10;99.90;;;;;;5029294;28;20437;-69
2023/03/17 06:15:18;;;;;;;0.85;0.55;;;0.10;99.90;;;;;;5029123;28;20430;-69
2023/03/17 06:17:45;;;;;;;0.85;0.85;;;0.30;99.90;;;;;;5029449;28;20427;-69
2023/03/17 06:20:15;;;;;;;0.98;0.98;;;0.50;99.90;;;;;;5029557;28;20441;-69
2023/03/17 06:22:42;;;;;;;1.55;1.05;;;0.80;99.90;;;;;;5029066;28;20442;-69
2023/03/17 06:25:28;;;;;;;0.90;0.90;;;0.90;1.00;;;;;;5026976;28;20463;-69
2023/03/17 06:27:56;;;;;;;4.95;1.30;;;1.10;1.00;;;;;;5028085;28;20489;-69
2023/03/17 06:30:26;;;;;;;0.85;0.85;;;1.30;99.90;;;;;;5027753;28;20442;-69
2023/03/17 06:32:53;;;;;;;1.30;1.02;;;1.50;99.90;;;;;;5027320;28;20506;-69
2023/03/17 06:35:21;;;;;;;1.17;1.13;;;2.00;1.00;;;;;;5028702;28;20430;-69
2023/03/17 06:37:48;;;;;;;0.85;0.85;;;2.70;1.00;;;;;;5027607;28;20431;-69
2023/03/17 06:40:18;;;;;;;1.30;1.10;;;3.50;99.90;;;;;;5029258;28;20514;-70
2023/03/17 06:42:45;;;;;;;1.08;0.98;;;;;;;;;;5029010;28;20438;-70
2023/03/17 06:45:16;;;;;;;0.82;0.82;;;;;;;;;;5027066;28;20423;-70
2023/03/17 06:47:43;;;;;;;0.80;0.80;;;4.50;1.00;;;;;;5029209;28;20963;-68
2023/03/17 06:50:11;;;;;;;0.70;0.65;;;6.60;99.90;;;;;;5030309;28;20435;-68
2023/03/17 06:52:38;;;;;;;0.80;0.80;;;7.20;99.90;;;;;;5032841;28;20433;-68
2023/03/17 06:55:07;;;;;;;2.30;0.80;;;7.80;99.90;;;;;;5032045;28;20837;-68
2023/03/17 06:57:34;;;;;;;0.93;0.93;;;8.00;99.90;;;;;;5030377;28;20932;-69
2023/03/17 07:00:00;;;;;;;1.30;1.20;;;8.30;99.90;;;;;;5032444;28;20766;-70
2023/03/17 07:02:36;;;;;;;1.50;1.20;;;8.60;99.90;;;;;;5032606;28;20834;-70
2023/03/17 07:05:03;;;;;;;0.90;0.90;;;9.00;99.90;;;;;;5030327;28;20945;-68
2023/03/17 07:07:30;;;;;;;1.30;1.05;;;9.30;99.90;;;;;;5032092;28;20484;-68
2023/03/17 07:09:57;;;;;;;1.07;0.90;;;9.60;99.90;;;;;;5032434;28;20542;-68
2023/03/17 07:12:24;;;;;;;1.00;0.88;;;10.00;99.90;;;;;;5031185;28;20781;-68
2023/03/17 07:14:51;;;;;;;1.57;1.40;;;10.10;99.90;;;;;;5031656;28;20574;-68
2023/03/17 07:17:18;;;;;;;2.65;1.02;;;10.10;99.90;;;;;;5029629;28;20514;-68
2023/03/17 07:19:45;;;;;;;0.90;0.90;;;;;;;;;;5031866;28;20560;-68
2023/03/17 07:22:12;;;;;;;1.50;0.85;;;10.20;99.90;;;;;;5031910;28;20822;-68
2023/03/17 07:24:41;;;;;;;1.38;1.10;;;10.30;99.90;;;;;;5031246;28;21089;-68
2023/03/17 07:27:13;;;;;;;1.25;1.15;;;10.30;99.90;;;;;;5031843;28;20539;-68
2023/03/17 07:29:40;;;;;;;0.85;0.82;;;10.30;99.90;;;;;;5031665;28;20427;-69
2023/03/17 07:32:08;;;;;;;1.40;0.90;;;10.20;99.90;;;;;;5029684;28;20466;-68
2023/03/17 07:34:35;;;;;;;0.93;0.82;;;10.40;99.90;;;;;;5031235;28;20441;-68
2023/03/17 07:37:05;;;;;;;1.05;1.05;;;10.00;99.90;;;;;;5028415;28;20431;-68
2023/03/17 07:39:35;;;;;;;0.63;0.63;;;10.30;99.90;;;;;;5026688;28;20449;-68
2023/03/17 07:42:02;;;;;;;2.75;1.13;;;10.50;99.90;;;;;;5031515;28;20447;-68
2023/03/17 07:44:32;;;;;;;1.20;0.88;;;10.70;99.90;;;;;;5030957;28;20534;-68
2023/03/17 07:46:59;;;;;;;0.70;0.70;;;11.00;99.90;;;;;;5031543;28;20435;-68
2023/03/17 07:49:28;;;;;;;2.47;1.02;;;11.30;99.90;;;;;;5029655;28;20439;-68
2023/03/17 07:52:09;;;;;;;0.98;0.80;;;11.50;99.90;;;;;;5031541;28;20442;-68
2023/03/17 07:54:36;;;;;;;0.90;0.60;;;10.80;99.90;;;;;;5028955;28;20437;-68
2023/03/17 07:57:04;;;;;;;0.80;0.70;;;10.80;99.90;;;;;;5030036;28;20431;-68
2023/03/17 07:59:31;;;;;;;0.60;0.60;;;10.40;99.90;;;;;;5028530;28;20477;-68
2023/03/17 08:02:00;;;;;;;1.23;1.13;;;10.50;99.90;;;;;;5031535;28;20534;-68
2023/03/17 08:04:27;;;;;;;1.00;1.00;;;11.00;99.90;;;;;;5029442;28;20493;-68
2023/03/17 08:06:56;;;;;;;2.50;1.42;;;11.60;99.90;;;;;;5029799;28;20798;-68
2023/03/17 08:09:23;;;;;;;3.33;1.03;;;12.10;99.90;;;;;;5030897;28;21014;-68
2023/03/17 08:11:50;;;;;;;0.77;0.77;;;12.50;99.90;;;;;;5031079;28;20435;-68
2023/03/17 08:14:17;;;;;;;1.10;1.00;;;12.80;99.90;;;;;;5030179;28;20546;-68
2023/03/17 08:16:43;;;;;;;0.73;0.73;;;12.80;99.90;;;;;;5030005;28;20430;-68
2023/03/17 08:19:10;;;;;;;1.27;1.17;;;12.90;99.90;;;;;;5030902;28;20431;-67
2023/03/17 08:21:38;;;;;;;0.98;0.98;;;12.60;99.90;;;;;;5029221;28;20997;-68
2023/03/17 08:24:04;;;;;;;1.02;0.95;;;12.70;99.90;;;;;;5028604;28;20886;-67
2023/03/17 08:26:32;;;;;;;1.80;1.23;;;12.50;99.90;;;;;;5030985;28;20458;-68
2023/03/17 08:28:59;;;;;;;2.13;1.13;;;11.80;99.90;;;;;;5029505;28;20435;-68
2023/03/17 08:31:26;;;;;;;1.33;1.00;;;11.60;99.90;;;;;;5030073;28;20485;-67
2023/03/17 08:33:55;;;;;;;0.98;0.95;;;11.40;99.90;;;;;;5029953;28;20433;-67
2023/03/17 08:36:25;;;;;;;1.20;1.17;;;11.40;99.90;;;;;;5028889;28;20431;-67
2023/03/17 08:38:52;;;;;;;1.23;1.13;;;11.40;99.90;;;;;;5031101;28;20427;-68
2023/03/17 08:41:22;;;;;;;1.92;1.13;;;11.50;99.90;;;;;;5030782;28;20431;-67
2023/03/17 08:43:50;;;;;;;0.70;0.70;;;11.80;99.90;;;;;;5028413;28;20435;-68
2023/03/17 08:46:18;;;;;;;1.27;1.10;;;12.20;99.90;;;;;;5030159;28;20434;-67
2023/03/17 08:48:47;;;;;;;1.38;0.98;;;12.40;99.90;;;;;;5030067;28;20462;-67
2023/03/17 08:51:15;;;;;;;1.35;1.15;;;12.50;99.90;;;;;;5029017;28;20438;-67
2023/03/17 08:53:45;;;;;;;1.10;0.95;;;13.10;99.90;;;;;;5028826;28;20430;-70
2023/03/17 08:56:13;;;;;;;1.23;1.15;;;13.80;99.90;;;;;;5028145;28;20475;-67
2023/03/17 08:58:41;;;;;;;1.02;0.93;;;14.40;99.90;;;;;;5030483;28;20430;-68
2023/03/17 09:01:11;;;;;;;1.88;1.15;;;14.80;99.90;;;;;;5030319;28;20438;-67
2023/03/17 09:03:41;;;;;;;1.55;1.25;;;15.10;99.90;;;;;;5029779;28;20437;-67
2023/03/17 09:06:10;;;;;;;1.83;1.30;;;15.40;99.90;;;;;;5030093;28;20878;-68
2023/03/17 09:08:46;;;;;;;1.30;1.20;;;15.50;99.90;;;;;;5028814;28;21223;-68
2023/03/17 09:11:27;;;;;;;2.00;1.33;;;15.30;99.90;;;;;;5029483;28;20841;-68
2023/03/17 09:13:55;;;;;;;1.27;1.20;;;15.20;99.90;;;;;;5029297;28;20423;-68
2023/03/17 09:16:32;;;;;;;1.92;1.42;;;14.50;99.90;;;;;;5029893;28;20426;-68
2023/03/17 09:18:59;;;;;;;3.00;1.47;;;14.50;99.90;;;;;;5029990;28;20426;-68
2023/03/17 09:21:26;;;;;;;1.52;1.30;;;14.50;99.90;;;;;;5029727;28;20439;-68
2023/03/17 09:23:53;;;;;;;5.30;1.17;;;14.40;99.90;;;;;;5027403;28;20469;-68
2023/03/17 09:26:24;;;;;;;0.95;0.95;;;14.40;99.90;;;;;;5029358;28;21066;-68
2023/03/17 09:28:51;;;;;;;1.10;1.07;;;14.40;99.90;;;;;;5029050;28;20423;-68
2023/03/17 09:31:18;;;;;;;1.20;1.20;;;14.00;99.90;;;;;;5028089;28;20901;-68
2023/03/17 09:33:46;;;;;;;1.25;1.20;;;13.80;99.90;;;;;;5029046;28;20427;-68
2023/03/17 09:36:12;;;;;;;1.27;1.20;;;13.10;99.90;;;;;;5030496;28;20431;-67
2023/03/17 09:38:39;;;;;;;1.10;1.00;;;13.60;99.90;;;;;;5028000;28;20433;-68
2023/03/17 09:41:46;;;;;;;1.40;1.00;;;13.60;99.90;;;;;;5028853;28;20430;-68
2023/03/17 09:44:36;;;;;;;1.70;1.33;;;13.60;99.90;;;;;;5029307;28;20434;-68
2023/03/17 09:47:27;;;;;;;1.38;1.27;;;13.50;99.90;;;;;;5009869;28;20448;-67
2023/03/17 09:50:00;;;;;;;1.60;1.50;;;13.80;99.90;;;;;;5021828;28;20913;-68
2023/03/17 09:52:33;;;;;;;0.93;0.93;;;13.80;99.90;;;;;;5029587;28;20517;-68
2023/03/17 09:55:02;;;;;;;1.60;1.50;;;14.10;99.90;;;;;;5029112;28;20423;-68
2023/03/17 09:57:35;;;;;;;2.00;1.13;;;14.20;99.90;;;;;;5027041;28;20925;-68
2023/03/17 10:00:10;;;;;;;1.40;1.30;;;14.50;99.90;;;;;;5025672;28;20508;-68
2023/03/17 10:02:37;;;;;;;4.40;1.58;;;14.80;99.90;;;;;;5027888;28;20441;-68
2023/03/17 10:05:26;;;;;;;1.42;1.30;;;14.70;99.90;;;;;;5028443;28;20928;-68
2023/03/17 10:07:59;;;;;;;1.05;1.05;;;;;;;;;;5029179;28;20434;-68
2023/03/17 10:10:45;;;;;;;1.20;1.20;;;14.70;99.90;;;;;;5029472;28;20434;-68
2023/03/17 10:13:25;;;;;;;2.20;1.20;;;;;;;;;;5027621;28;20466;-68
2023/03/17 10:16:16;;;;;;;1.60;1.35;;;;;;;;;;5028276;28;20441;-67
2023/03/17 10:18:47;;;;;;;1.65;1.40;;;;;;;;;;5029006;28;20435;-68
2023/03/17 10:21:21;;;;;;;2.87;1.77;;;;;;;;;;5029462;28;20530;-68
2023/03/17 10:23:48;;;;;;;3.80;1.63;;;;;;;;;;5031388;28;20445;-68
2023/03/17 10:26:42;;;;;;;1.27;1.17;;;15.30;99.90;;;;;;5033183;28;20430;-68
2023/03/17 10:29:24;;;;;;;1.88;1.45;;;14.70;99.90;;;;;;5031507;28;20493;-68
2023/03/17 10:31:52;;;;;;;1.60;1.40;;;14.80;99.90;;;;;;5033139;28;20430;-68
2023/03/17 10:34:29;;;;;;;0.90;0.90;;;15.10;99.90;;;;;;5030735;28;20952;-68
2023/03/17 10:37:12;;;;;;;3.80;1.23;;;;;;;;;;5032897;28;20431;-68
2023/03/17 10:39:45;;;;;;;1.17;1.08;;;15.30;99.90;;;;;;5031291;28;20434;-68
2023/03/17 10:42:34;;;;;;;1.23;1.13;;;15.80;99.90;;;;;;5033019;28;20464;-68
2023/03/17 10:45:26;;;;;;;1.13;1.05;;;15.90;99.90;;;;;;5031387;28;20434;-68
2023/03/17 10:47:57;;;;;;;1.07;1.07;;;16.10;99.90;;;;;;5030806;28;20437;-68
2023/03/17 10:50:31;;;;;;;1.30;1.20;;;16.10;99.90;;;;;;5032359;28;20426;-67
2023/03/17 10:53:07;;;;;;;3.10;1.17;;;16.30;99.90;;;;;;5032643;28;20762;-67
2023/03/17 10:55:36;;;;;;;1.17;1.17;;;16.60;99.90;;;;;;5031968;28;20518;-68
2023/03/17 10:58:14;;;;;;;1.23;1.17;;;16.60;99.90;;;;;;5032325;28;20437;-67
2023/03/17 11:01:02;;;;;;;1.38;0.90;;;16.50;99.90;;;;;;5030652;28;20431;-67
2023/03/17 11:03:34;;;;;;;1.40;1.30;;;17.30;99.90;;;;;;5031905;28;20433;-67
2023/03/17 11:06:18;;;;;;;1.20;1.10;;;17.50;99.90;;;;;;5032031;28;20435;-68
2023/03/17 11:08:53;;;;;;;2.58;1.50;;;18.30;99.90;;;;;;5032189;28;20430;-67
2023/03/17 11:11:27;;;;;;;1.23;1.23;;;18.60;99.90;;;;;;5029911;28;20457;-68
2023/03/17 11:14:04;;;;;;;1.43;1.33;;;18.90;99.90;;;;;;5029986;28;20427;-68
2023/03/17 11:16:35;;;;;;;3.47;1.40;;;19.10;99.90;;;;;;5031655;28;20498;-68
2023/03/17 11:19:04;;;;;;;1.60;1.50;;;19.40;99.90;;;;;;5029238;28;20508;-67
2023/03/17 11:22:29;;;;;;;1.20;1.10;;;19.20;99.90;;;;;;5032194;28;20902;-68
2023/03/17 11:25:10;;;;;;;1.45;1.23;;;19.00;99.90;;;;;;5028746;28;20513;-68
2023/03/17 11:27:46;;;;;;;1.42;1.30;;;18.50;99.90;;;;;;5029213;28;20469;-67
2023/03/17 11:30:41;;;;;;;1.40;1.25;;;18.60;99.90;;;;;;5029104;28;20506;-67
2023/03/17 11:33:33;;;;;;;1.77;1.67;;;18.70;99.90;;;;;;4986045;28;20434;-68
2023/03/17 11:36:23;;;;;;;1.30;1.03;;;18.00;99.90;;;;;;4989510;28;20431;-68
2023/03/17 11:39:09;;;;;;;1.53;1.43;;;18.60;99.90;;;;;;4986594;28;20590;-68
2023/03/17 11:42:16;;;;;;;1.90;1.33;;;18.70;99.90;;;;;;4988750;28;20637;-68
2023/03/17 11:45:15;;;;;;;1.67;1.40;;;18.90;99.90;;;;;;4989159;28;20957;-68
2023/03/17 11:48:03;;;;;;;2.90;1.50;;;19.30;99.90;;;;;;4985363;28;20434;-68
2023/03/17 11:50:38;;;;;;;1.70;1.45;;;18.90;99.90;;;;;;4969747;28;20439;-68
2023/03/17 11:53:19;;;;;;;2.80;1.10;;;19.00;99.90;;;;;;4969988;28;20443;-67
2023/03/17 11:55:57;;;;;;;1.90;1.50;;;19.20;99.90;;;;;;4984847;28;20606;-68
2023/03/17 11:58:40;;;;;;;1.20;1.20;;;19.60;99.90;;;;;;4989336;28;20430;-68
2023/03/17 12:01:12;;;;;;;1.63;1.53;;;19.80;99.90;;;;;;4975951;28;20475;-67
2023/03/17 12:04:04;;;;;;;1.83;1.48;;;19.70;99.90;;;;;;4968509;28;20530;-67
2023/03/17 12:06:41;;;;;;;1.60;1.50;;;19.70;99.90;;;;;;4969626;28;20443;-68
2023/03/17 12:09:10;;;;;;;1.73;1.63;;;19.60;99.90;;;;;;4986927;28;20453;-68
2023/03/17 12:11:40;;;;;;;1.98;1.17;;;18.20;99.90;;;;;;5030932;28;20802;-67
2023/03/17 12:14:26;;;;;;;1.77;1.58;;;18.00;99.90;;;;;;5030682;28;21179;-67
2023/03/17 12:17:20;;;;;;;1.52;1.30;;;18.10;99.90;;;;;;5029733;28;20434;-67
2023/03/17 12:20:09;;;;;;;1.58;1.42;;;18.10;99.90;;;;;;5029656;28;20426;-67
2023/03/17 12:23:10;;;;;;;1.83;1.40;;;17.90;99.90;;;;;;5030873;28;20514;-67
2023/03/17 12:25:56;;;;;;;1.70;1.40;;;17.70;99.90;;;;;;5022005;28;20481;-67
2023/03/17 12:28:41;;;;;;;1.30;1.25;;;17.50;99.90;;;;;;5024653;28;20653;-67
2023/03/17 12:31:35;;;;;;;2.13;1.33;;;17.60;99.90;;;;;;5024599;28;20958;-67
2023/03/17 12:34:24;;;;;;;1.25;1.15;;;17.20;99.90;;;;;;5006016;28;20437;-67
2023/03/17 12:36:51;;;;;;;1.30;1.20;;;16.90;99.90;;;;;;5018085;28;20426;-67
2023/03/17 12:39:26;;;;;;;2.70;1.38;;;17.20;99.90;;;;;;5027364;28;20422;-67
2023/03/17 12:41:55;;;;;;;1.58;1.48;;;17.10;99.90;;;;;;5027983;28;20427;-67
2023/03/17 12:45:00;;;;;;;1.23;1.13;;;17.20;99.90;;;;;;5027054;28;20911;-67
2023/03/17 12:47:35;;;;;;;1.40;1.20;;;17.40;99.90;;;;;;5006659;28;20439;-68
2023/03/17 12:50:30;;;;;;;1.48;1.38;;;17.00;99.90;;;;;;5010979;28;20442;-67
2023/03/17 12:53:07;;;;;;;3.00;1.50;;;17.10;99.90;;;;;;5025836;28;20433;-67
2023/03/17 12:55:37;;;;;;;6.45;1.65;;;17.40;99.90;;;;;;5026800;28;20419;-68
2023/03/17 12:58:36;;;;;;;1.50;1.40;;;17.30;99.90;;;;;;5010799;28;20464;-69
2023/03/17 13:01:21;;;;;;;1.43;1.33;;;17.30;99.90;;;;;;5027650;28;20440;-68
2023/03/17 13:04:20;;;;;;;4.60;1.33;;;17.20;99.90;;;;;;5028249;28;20913;-68
2023/03/17 13:06:57;;;;;;;2.05;0.88;;;17.40;99.90;;;;;;5030194;28;20450;-68
2023/03/17 13:09:52;;;;;;;1.20;1.10;;;17.20;99.90;;;;;;5027957;28;20441;-68
2023/03/17 13:12:56;;;;;;;1.10;1.10;;;17.20;99.90;;;;;;5030233;28;20522;-68
2023/03/17 13:15:26;;;;;;;1.65;1.55;;;17.40;99.90;;;;;;5029692;28;20423;-68
2023/03/17 13:18:17;;;;;;;1.37;1.20;;;17.40;99.90;;;;;;5028718;28;20430;-68
2023/03/17 13:20:58;;;;;;;1.33;1.23;;;16.90;99.90;;;;;;5029385;28;20430;-69
2023/03/17 13:23:42;;;;;;;1.50;1.40;;;17.00;99.90;;;;;;5030019;28;20442;-68
2023/03/17 13:26:21;;;;;;;0.98;0.98;;;17.20;99.90;;;;;;5009617;28;20468;-68
2023/03/17 13:28:49;;;;;;;1.90;1.45;;;17.30;99.90;;;;;;5010075;28;20467;-69
2023/03/17 13:31:32;;;;;;;1.98;1.52;;;17.30;99.90;;;;;;5010218;28;20476;-68
2023/03/17 13:34:18;;;;;;;6.30;1.60;;;17.40;99.90;;;;;;5009773;28;20432;-68
2023/03/17 13:36:48;;;;;;;1.23;1.13;;;17.40;99.90;;;;;;5010260;28;20428;-68
2023/03/17 13:39:33;;;;;;;1.77;1.48;;;17.30;99.90;;;;;;5010368;28;20433;-67
2023/03/17 13:42:18;;;;;;;1.33;1.10;;;17.40;99.90;;;;;;5029195;28;20439;-68
2023/03/17 13:45:15;;;;;;;1.47;1.37;;;17.40;99.90;;;;;;5029156;28;20521;-68